sensor_id;sensor_type;location;lat;lon;timestamp;temperature;humidity
8220;DHT22;4151;51.110;7.020;2022-12-18T00:00:59;-3.10;99.90
8220;DHT22;4151;51.110;7.020;2022-12-18T00:03:25;-3.10;99.90
8220;DHT22;4151;51.110;7.020;2022-12-18T00:05:52;-3.10;99.90
8220;DHT22;4151;51.110;7.020;2022-12-18T00:08:18;-3.10;99.90
8220;DHT22;4151;51.110;7.020;2022-12-18T00:10:46;-3.00;99.90
8220;DHT22;4151;51.110;7.020;2022-12-18T00:13:12;-3.10;99.90
8220;DHT22;4151;51.110;7.020;2022-12-18T00:15:38;-3.10;99.90
8220;DHT22;4151;51.110;7.020;2022-12-18T00:18:04;-3.10;99.90
8220;DHT22;4151;51.110;7.020;2022-12-18T00:20:30;-3.20;99.90
8220;DHT22;4151;51.110;7.020;2022-12-18T00:22:56;-3.20;99.90
8220;DHT22;4151;51.110;7.020;2022-12-18T00:25:22;-3.30;99.90
8220;DHT22;4151;51.110;7.020;2022-12-18T00:27:47;-3.30;99.90
8220;DHT22;4151;51.110;7.020;2022-12-18T00:30:13;-3.30;99.90
8220;DHT22;4151;51.110;7.020;2022-12-18T00:32:39;-3.30;99.90
8220;DHT22;4151;51.110;7.020;2022-12-18T00:35:06;-3.40;99.90
8220;DHT22;4151;51.110;7.020;2022-12-18T00:37:33;-3.40;99.90
8220;DHT22;4151;51.110;7.020;2022-12-18T00:39:59;-3.40;99.90
8220;DHT22;4151;51.110;7.020;2022-12-18T00:42:25;-3.40;99.90
8220;DHT22;4151;51.110;7.020;2022-12-18T00:45:09;-3.40;99.90
8220;DHT22;4151;51.110;7.020;2022-12-18T00:47:34;-3.40;99.90
8220;DHT22;4151;51.110;7.020;2022-12-18T00:50:00;-3.30;99.90
8220;DHT22;4151;51.110;7.020;2022-12-18T00:52:25;-3.30;99.90
8220;DHT22;4151;51.110;7.020;2022-12-18T00:54:51;-3.30;99.90
8220;DHT22;4151;51.110;7.020;2022-12-18T00:57:16;-3.20;99.90
8220;DHT22;4151;51.110;7.020;2022-12-18T00:59:42;-3.30;99.90
8220;DHT22;4151;51.110;7.020;2022-12-18T01:02:08;-3.30;99.90
8220;DHT22;4151;51.110;7.020;2022-12-18T01:04:34;-3.30;99.90
8220;DHT22;4151;51.110;7.020;2022-12-18T01:07:00;-3.30;99.90
8220;DHT22;4151;51.110;7.020;2022-12-18T01:09:26;-3.30;99.90
8220;DHT22;4151;51.110;7.020;2022-12-18T01:11:52;-3.30;99.90
8220;DHT22;4151;51.110;7.020;2022-12-18T01:14:17;-3.30;99.90
8220;DHT22;4151;51.110;7.020;2022-12-18T01:16:43;-3.20;99.90
8220;DHT22;4151;51.110;7.020;2022-12-18T01:19:08;-3.30;99.90
8220;DHT22;4151;51.110;7.020;2022-12-18T01:21:34;-3.30;99.90
8220;DHT22;4151;51.110;7.020;2022-12-18T01:24:00;-3.30;99.90
8220;DHT22;4151;51.110;7.020;2022-12-18T01:26:26;-3.20;99.90
8220;DHT22;4151;51.110;7.020;2022-12-18T01:28:55;-3.20;99.90
8220;DHT22;4151;51.110;7.020;2022-12-18T01:31:27;-3.20;99.90
8220;DHT22;4151;51.110;7.020;2022-12-18T01:33:54;-3.20;99.90
8220;DHT22;4151;51.110;7.020;2022-12-18T01:36:21;-3.20;99.90
8220;DHT22;4151;51.110;7.020;2022-12-18T01:38:47;-3.20;99.90
8220;DHT22;4151;51.110;7.020;2022-12-18T01:41:14;-3.30;99.90
8220;DHT22;4151;51.110;7.020;2022-12-18T01:43:41;-3.30;99.90
8220;DHT22;4151;51.110;7.020;2022-12-18T01:46:07;-3.30;99.90
8220;DHT22;4151;51.110;7.020;2022-12-18T01:48:33;-3.40;99.90
8220;DHT22;4151;51.110;7.020;2022-12-18T01:51:01;-3.40;99.90
8220;DHT22;4151;51.110;7.020;2022-12-18T01:53:27;-3.40;99.90
8220;DHT22;4151;51.110;7.020;2022-12-18T01:55:55;-3.50;99.90
8220;DHT22;4151;51.110;7.020;2022-12-18T01:59:18;-3.40;99.90
8220;DHT22;4151;51.110;7.020;2022-12-18T02:01:20;-3.40;99.90
8220;DHT22;4151;51.110;7.020;2022-12-18T02:03:46;-3.30;99.90
8220;DHT22;4151;51.110;7.020;2022-12-18T02:06:16;-3.20;99.90
8220;DHT22;4151;51.110;7.020;2022-12-18T02:16:52;-3.30;99.90
8220;DHT22;4151;51.110;7.020;2022-12-18T02:27:20;-3.40;99.90
8220;DHT22;4151;51.110;7.020;2022-12-18T02:29:48;-3.40;99.90
8220;DHT22;4151;51.110;7.020;2022-12-18T02:32:20;-3.30;99.90
8220;DHT22;4151;51.110;7.020;2022-12-18T02:34:48;-3.30;99.90
8220;DHT22;4151;51.110;7.020;2022-12-18T02:37:16;-3.40;99.90
8220;DHT22;4151;51.110;7.020;2022-12-18T02:39:44;-3.40;99.90
8220;DHT22;4151;51.110;7.020;2022-12-18T02:42:12;-3.30;99.90
8220;DHT22;4151;51.110;7.020;2022-12-18T02:44:46;-3.20;99.90
8220;DHT22;4151;51.110;7.020;2022-12-18T02:47:13;-3.30;99.90
8220;DHT22;4151;51.110;7.020;2022-12-18T02:52:38;-3.20;99.90
8220;DHT22;4151;51.110;7.020;2022-12-18T03:00:22;-3.20;99.90
8220;DHT22;4151;51.110;7.020;2022-12-18T03:03:11;-3.10;99.90
8220;DHT22;4151;51.110;7.020;2022-12-18T03:05:43;-3.10;99.90
8220;DHT22;4151;51.110;7.020;2022-12-18T03:08:18;-3.10;99.90
8220;DHT22;4151;51.110;7.020;2022-12-18T03:10:58;-3.20;99.90
8220;DHT22;4151;51.110;7.020;2022-12-18T03:13:33;-3.20;99.90
8220;DHT22;4151;51.110;7.020;2022-12-18T03:16:01;-3.20;99.90
8220;DHT22;4151;51.110;7.020;2022-12-18T03:18:45;-3.20;99.90
8220;DHT22;4151;51.110;7.020;2022-12-18T03:21:12;-3.20;99.90
8220;DHT22;4151;51.110;7.020;2022-12-18T03:23:42;-3.10;99.90
8220;DHT22;4151;51.110;7.020;2022-12-18T03:26:11;-3.00;99.90
8220;DHT22;4151;51.110;7.020;2022-12-18T03:28:44;-3.00;99.90
8220;DHT22;4151;51.110;7.020;2022-12-18T03:31:13;-3.00;99.90
8220;DHT22;4151;51.110;7.020;2022-12-18T03:33:57;-3.10;99.90
8220;DHT22;4151;51.110;7.020;2022-12-18T03:36:24;-3.10;99.90
8220;DHT22;4151;51.110;7.020;2022-12-18T03:38:50;-3.00;99.90
8220;DHT22;4151;51.110;7.020;2022-12-18T03:44:11;-3.00;99.90
8220;DHT22;4151;51.110;7.020;2022-12-18T03:46:44;-3.10;99.90
8220;DHT22;4151;51.110;7.020;2022-12-18T03:49:32;-3.10;99.90
8220;DHT22;4151;51.110;7.020;2022-12-18T03:52:05;-3.00;99.90
8220;DHT22;4151;51.110;7.020;2022-12-18T03:54:33;-3.00;99.90
8220;DHT22;4151;51.110;7.020;2022-12-18T03:57:10;-3.10;99.90
8220;DHT22;4151;51.110;7.020;2022-12-18T03:59:38;-3.20;99.90
8220;DHT22;4151;51.110;7.020;2022-12-18T04:02:06;-3.20;99.90
8220;DHT22;4151;51.110;7.020;2022-12-18T04:04:34;-3.20;99.90
8220;DHT22;4151;51.110;7.020;2022-12-18T04:07:00;-3.20;99.90
8220;DHT22;4151;51.110;7.020;2022-12-18T04:09:27;-3.20;99.90
8220;DHT22;4151;51.110;7.020;2022-12-18T04:11:53;-3.30;99.90
8220;DHT22;4151;51.110;7.020;2022-12-18T04:14:19;-3.30;99.90
8220;DHT22;4151;51.110;7.020;2022-12-18T04:16:44;-3.40;99.90
8220;DHT22;4151;51.110;7.020;2022-12-18T04:19:10;-3.40;99.90
8220;DHT22;4151;51.110;7.020;2022-12-18T04:21:35;-3.40;99.90
8220;DHT22;4151;51.110;7.020;2022-12-18T04:24:01;-3.40;99.90
8220;DHT22;4151;51.110;7.020;2022-12-18T04:26:26;-3.30;99.90
8220;DHT22;4151;51.110;7.020;2022-12-18T04:28:52;-3.30;99.90
8220;DHT22;4151;51.110;7.020;2022-12-18T04:31:17;-3.30;99.90
8220;DHT22;4151;51.110;7.020;2022-12-18T04:33:43;-3.20;99.90
8220;DHT22;4151;51.110;7.020;2022-12-18T04:36:09;-3.20;99.90
8220;DHT22;4151;51.110;7.020;2022-12-18T04:38:34;-3.20;99.90
8220;DHT22;4151;51.110;7.020;2022-12-18T04:41:00;-3.10;99.90
8220;DHT22;4151;51.110;7.020;2022-12-18T04:43:25;-3.10;99.90
8220;DHT22;4151;51.110;7.020;2022-12-18T04:45:51;-3.10;99.90
8220;DHT22;4151;51.110;7.020;2022-12-18T04:48:16;-3.10;99.90
8220;DHT22;4151;51.110;7.020;2022-12-18T04:50:42;-3.00;99.90
8220;DHT22;4151;51.110;7.020;2022-12-18T04:53:08;-3.00;99.90
8220;DHT22;4151;51.110;7.020;2022-12-18T04:55:33;-3.00;99.90
8220;DHT22;4151;51.110;7.020;2022-12-18T04:57:59;-3.00;99.90
8220;DHT22;4151;51.110;7.020;2022-12-18T05:00:24;-3.00;99.90
8220;DHT22;4151;51.110;7.020;2022-12-18T05:02:50;-3.10;99.90
8220;DHT22;4151;51.110;7.020;2022-12-18T05:05:15;-3.20;99.90
8220;DHT22;4151;51.110;7.020;2022-12-18T05:07:41;-3.30;99.90
8220;DHT22;4151;51.110;7.020;2022-12-18T05:10:07;-3.30;99.90
8220;DHT22;4151;51.110;7.020;2022-12-18T05:12:33;-3.40;99.90
8220;DHT22;4151;51.110;7.020;2022-12-18T05:14:59;-3.40;99.90
8220;DHT22;4151;51.110;7.020;2022-12-18T05:17:24;-3.30;99.90
8220;DHT22;4151;51.110;7.020;2022-12-18T05:19:50;-3.30;99.90
8220;DHT22;4151;51.110;7.020;2022-12-18T05:22:15;-3.30;99.90
8220;DHT22;4151;51.110;7.020;2022-12-18T05:24:41;-3.20;99.90
8220;DHT22;4151;51.110;7.020;2022-12-18T05:27:06;-3.20;99.90
8220;DHT22;4151;51.110;7.020;2022-12-18T05:29:32;-3.20;99.90
8220;DHT22;4151;51.110;7.020;2022-12-18T05:31:57;-3.20;99.90
8220;DHT22;4151;51.110;7.020;2022-12-18T05:34:23;-3.10;99.90
8220;DHT22;4151;51.110;7.020;2022-12-18T05:36:49;-3.10;99.90
8220;DHT22;4151;51.110;7.020;2022-12-18T05:39:14;-3.00;99.90
8220;DHT22;4151;51.110;7.020;2022-12-18T05:41:40;-3.20;99.90
8220;DHT22;4151;51.110;7.020;2022-12-18T05:44:05;-3.30;99.90
8220;DHT22;4151;51.110;7.020;2022-12-18T05:46:31;-3.30;99.90
8220;DHT22;4151;51.110;7.020;2022-12-18T05:49:00;-3.30;99.90
8220;DHT22;4151;51.110;7.020;2022-12-18T05:51:26;-3.30;99.90
8220;DHT22;4151;51.110;7.020;2022-12-18T05:53:52;-3.30;99.90
8220;DHT22;4151;51.110;7.020;2022-12-18T05:56:20;-3.30;99.90
8220;DHT22;4151;51.110;7.020;2022-12-18T05:58:46;-3.30;99.90
8220;DHT22;4151;51.110;7.020;2022-12-18T06:01:16;-3.20;99.90
8220;DHT22;4151;51.110;7.020;2022-12-18T06:03:42;-3.20;99.90
8220;DHT22;4151;51.110;7.020;2022-12-18T06:06:15;-3.10;99.90
8220;DHT22;4151;51.110;7.020;2022-12-18T06:08:41;-3.10;99.90
8220;DHT22;4151;51.110;7.020;2022-12-18T06:11:07;-3.20;99.90
8220;DHT22;4151;51.110;7.020;2022-12-18T06:13:32;-3.20;99.90
8220;DHT22;4151;51.110;7.020;2022-12-18T06:15:59;-3.30;99.90
8220;DHT22;4151;51.110;7.020;2022-12-18T06:18:26;-3.30;99.90
8220;DHT22;4151;51.110;7.020;2022-12-18T06:20:56;-3.30;99.90
8220;DHT22;4151;51.110;7.020;2022-12-18T06:23:22;-3.40;99.90
8220;DHT22;4151;51.110;7.020;2022-12-18T06:25:48;-3.50;99.90
8220;DHT22;4151;51.110;7.020;2022-12-18T06:28:13;-3.60;99.90
8220;DHT22;4151;51.110;7.020;2022-12-18T06:30:39;-3.60;99.90
8220;DHT22;4151;51.110;7.020;2022-12-18T06:33:05;-3.60;99.90
8220;DHT22;4151;51.110;7.020;2022-12-18T06:35:31;-3.60;99.90
8220;DHT22;4151;51.110;7.020;2022-12-18T06:37:57;-3.70;99.90
8220;DHT22;4151;51.110;7.020;2022-12-18T06:40:23;-3.70;99.90
8220;DHT22;4151;51.110;7.020;2022-12-18T06:42:48;-3.70;99.90
8220;DHT22;4151;51.110;7.020;2022-12-18T06:45:14;-3.70;99.90
8220;DHT22;4151;51.110;7.020;2022-12-18T06:47:39;-3.70;99.90
8220;DHT22;4151;51.110;7.020;2022-12-18T06:50:05;-3.70;99.90
8220;DHT22;4151;51.110;7.020;2022-12-18T06:52:32;-3.70;99.90
8220;DHT22;4151;51.110;7.020;2022-12-18T06:54:58;-3.80;99.90
8220;DHT22;4151;51.110;7.020;2022-12-18T06:57:23;-3.80;99.90
8220;DHT22;4151;51.110;7.020;2022-12-18T06:59:49;-3.70;99.90
8220;DHT22;4151;51.110;7.020;2022-12-18T07:02:14;-3.70;99.90
8220;DHT22;4151;51.110;7.020;2022-12-18T07:04:40;-3.70;99.90
8220;DHT22;4151;51.110;7.020;2022-12-18T07:07:05;-3.70;99.90
8220;DHT22;4151;51.110;7.020;2022-12-18T07:09:31;-3.70;99.90
8220;DHT22;4151;51.110;7.020;2022-12-18T07:11:57;-3.70;99.90
8220;DHT22;4151;51.110;7.020;2022-12-18T07:14:22;-3.70;99.90
8220;DHT22;4151;51.110;7.020;2022-12-18T07:16:48;-3.70;99.90
8220;DHT22;4151;51.110;7.020;2022-12-18T07:19:13;-3.60;99.90
8220;DHT22;4151;51.110;7.020;2022-12-18T07:21:39;-3.50;99.90
8220;DHT22;4151;51.110;7.020;2022-12-18T07:24:05;-3.50;99.90
8220;DHT22;4151;51.110;7.020;2022-12-18T07:26:31;-3.40;99.90
8220;DHT22;4151;51.110;7.020;2022-12-18T07:28:56;-3.30;99.90
8220;DHT22;4151;51.110;7.020;2022-12-18T07:31:23;-3.30;99.90
8220;DHT22;4151;51.110;7.020;2022-12-18T07:33:50;-3.30;99.90
8220;DHT22;4151;51.110;7.020;2022-12-18T07:36:16;-3.30;99.90
8220;DHT22;4151;51.110;7.020;2022-12-18T07:38:42;-3.30;99.90
8220;DHT22;4151;51.110;7.020;2022-12-18T07:41:12;-3.30;99.90
8220;DHT22;4151;51.110;7.020;2022-12-18T07:43:38;-3.30;99.90
8220;DHT22;4151;51.110;7.020;2022-12-18T07:46:05;-3.30;99.90
8220;DHT22;4151;51.110;7.020;2022-12-18T07:48:31;-3.30;99.90
8220;DHT22;4151;51.110;7.020;2022-12-18T07:51:04;-3.20;99.90
8220;DHT22;4151;51.110;7.020;2022-12-18T07:53:30;-3.20;99.90
8220;DHT22;4151;51.110;7.020;2022-12-18T07:56:02;-3.20;99.90
8220;DHT22;4151;51.110;7.020;2022-12-18T07:58:28;-3.20;99.90
8220;DHT22;4151;51.110;7.020;2022-12-18T08:00:54;-3.20;99.90
8220;DHT22;4151;51.110;7.020;2022-12-18T08:03:19;-3.20;99.90
8220;DHT22;4151;51.110;7.020;2022-12-18T08:05:45;-3.20;99.90
8220;DHT22;4151;51.110;7.020;2022-12-18T08:08:11;-3.20;99.90
8220;DHT22;4151;51.110;7.020;2022-12-18T08:10:37;-3.20;99.90
8220;DHT22;4151;51.110;7.020;2022-12-18T08:13:03;-3.20;99.90
8220;DHT22;4151;51.110;7.020;2022-12-18T08:15:28;-3.10;99.90
8220;DHT22;4151;51.110;7.020;2022-12-18T08:17:56;-3.20;99.90
8220;DHT22;4151;51.110;7.020;2022-12-18T08:20:22;-3.10;99.90
8220;DHT22;4151;51.110;7.020;2022-12-18T08:22:48;-3.00;99.90
8220;DHT22;4151;51.110;7.020;2022-12-18T08:25:13;-3.00;99.90
8220;DHT22;4151;51.110;7.020;2022-12-18T08:27:39;-2.80;99.90
8220;DHT22;4151;51.110;7.020;2022-12-18T08:30:05;-2.70;99.90
8220;DHT22;4151;51.110;7.020;2022-12-18T08:32:31;-2.60;99.90
8220;DHT22;4151;51.110;7.020;2022-12-18T08:34:58;-2.40;99.90
8220;DHT22;4151;51.110;7.020;2022-12-18T08:37:23;-2.30;99.90
8220;DHT22;4151;51.110;7.020;2022-12-18T08:39:49;-2.20;99.90
8220;DHT22;4151;51.110;7.020;2022-12-18T08:42:15;-2.10;99.90
8220;DHT22;4151;51.110;7.020;2022-12-18T08:44:59;-2.00;99.90
8220;DHT22;4151;51.110;7.020;2022-12-18T08:47:24;-1.90;99.90
8220;DHT22;4151;51.110;7.020;2022-12-18T08:49:51;-1.70;99.90
8220;DHT22;4151;51.110;7.020;2022-12-18T08:52:17;-1.60;99.90
8220;DHT22;4151;51.110;7.020;2022-12-18T08:54:42;-1.50;99.90
8220;DHT22;4151;51.110;7.020;2022-12-18T08:57:08;-1.40;99.90
8220;DHT22;4151;51.110;7.020;2022-12-18T08:59:33;-1.30;99.90
8220;DHT22;4151;51.110;7.020;2022-12-18T09:01:59;-1.10;99.90
8220;DHT22;4151;51.110;7.020;2022-12-18T09:04:24;-0.90;99.90
8220;DHT22;4151;51.110;7.020;2022-12-18T09:06:50;-0.60;99.90
8220;DHT22;4151;51.110;7.020;2022-12-18T09:09:16;-0.30;99.90
8220;DHT22;4151;51.110;7.020;2022-12-18T09:11:41;0.00;99.90
8220;DHT22;4151;51.110;7.020;2022-12-18T09:14:08;0.40;99.90
8220;DHT22;4151;51.110;7.020;2022-12-18T09:16:34;0.60;99.90
8220;DHT22;4151;51.110;7.020;2022-12-18T09:19:02;0.70;99.90
8220;DHT22;4151;51.110;7.020;2022-12-18T09:34:19;0.80;99.90
8220;DHT22;4151;51.110;7.020;2022-12-18T09:36:47;1.10;99.90
8220;DHT22;4151;51.110;7.020;2022-12-18T09:39:12;1.30;99.90
8220;DHT22;4151;51.110;7.020;2022-12-18T09:41:46;1.40;99.90
8220;DHT22;4151;51.110;7.020;2022-12-18T09:44:32;1.40;99.90
8220;DHT22;4151;51.110;7.020;2022-12-18T09:47:34;1.60;99.90
8220;DHT22;4151;51.110;7.020;2022-12-18T09:50:05;1.50;99.90
8220;DHT22;4151;51.110;7.020;2022-12-18T09:52:40;1.60;99.90
8220;DHT22;4151;51.110;7.020;2022-12-18T09:57:47;1.40;99.90
8220;DHT22;4151;51.110;7.020;2022-12-18T10:00:22;1.40;99.90
8220;DHT22;4151;51.110;7.020;2022-12-18T10:02:49;1.50;99.90
8220;DHT22;4151;51.110;7.020;2022-12-18T10:10:52;1.10;99.90
8220;DHT22;4151;51.110;7.020;2022-12-18T10:13:49;1.00;99.90
8220;DHT22;4151;51.110;7.020;2022-12-18T10:16:27;1.00;99.90
8220;DHT22;4151;51.110;7.020;2022-12-18T10:24:25;1.00;99.90
8220;DHT22;4151;51.110;7.020;2022-12-18T10:26:53;1.10;99.90
8220;DHT22;4151;51.110;7.020;2022-12-18T10:29:21;1.10;99.90
8220;DHT22;4151;51.110;7.020;2022-12-18T10:31:47;1.10;99.90
8220;DHT22;4151;51.110;7.020;2022-12-18T10:34:13;1.40;99.90
8220;DHT22;4151;51.110;7.020;2022-12-18T10:36:42;1.50;99.90
8220;DHT22;4151;51.110;7.020;2022-12-18T10:39:19;1.70;99.90
8220;DHT22;4151;51.110;7.020;2022-12-18T10:41:45;1.80;99.90
8220;DHT22;4151;51.110;7.020;2022-12-18T10:44:22;1.90;99.90
8220;DHT22;4151;51.110;7.020;2022-12-18T10:46:55;1.90;99.90
8220;DHT22;4151;51.110;7.020;2022-12-18T10:49:29;1.90;99.90
8220;DHT22;4151;51.110;7.020;2022-12-18T10:52:19;2.00;99.90
8220;DHT22;4151;51.110;7.020;2022-12-18T10:59:57;1.90;99.90
8220;DHT22;4151;51.110;7.020;2022-12-18T11:02:37;1.90;99.90
8220;DHT22;4151;51.110;7.020;2022-12-18T11:05:20;1.80;99.90
8220;DHT22;4151;51.110;7.020;2022-12-18T11:07:49;1.70;99.90
8220;DHT22;4151;51.110;7.020;2022-12-18T11:10:21;1.80;99.90
8220;DHT22;4151;51.110;7.020;2022-12-18T11:12:47;1.80;99.90
8220;DHT22;4151;51.110;7.020;2022-12-18T11:15:21;1.90;99.90
8220;DHT22;4151;51.110;7.020;2022-12-18T11:17:50;1.80;99.90
8220;DHT22;4151;51.110;7.020;2022-12-18T11:20:34;1.80;99.90
8220;DHT22;4151;51.110;7.020;2022-12-18T11:23:03;1.80;99.90
8220;DHT22;4151;51.110;7.020;2022-12-18T11:25:29;1.80;99.90
8220;DHT22;4151;51.110;7.020;2022-12-18T11:27:58;1.80;99.90
8220;DHT22;4151;51.110;7.020;2022-12-18T11:35:59;2.00;99.90
8220;DHT22;4151;51.110;7.020;2022-12-18T11:38:34;2.10;99.90
8220;DHT22;4151;51.110;7.020;2022-12-18T11:43:50;2.10;99.90
8220;DHT22;4151;51.110;7.020;2022-12-18T11:46:24;2.10;99.90
8220;DHT22;4151;51.110;7.020;2022-12-18T11:49:01;2.00;99.90
8220;DHT22;4151;51.110;7.020;2022-12-18T11:51:37;1.80;99.90
8220;DHT22;4151;51.110;7.020;2022-12-18T12:05:34;1.40;99.90
8220;DHT22;4151;51.110;7.020;2022-12-18T12:08:57;1.30;99.90
8220;DHT22;4151;51.110;7.020;2022-12-18T12:11:34;1.10;99.90
8220;DHT22;4151;51.110;7.020;2022-12-18T12:16:58;1.00;99.90
8220;DHT22;4151;51.110;7.020;2022-12-18T12:19:47;1.00;99.90
8220;DHT22;4151;51.110;7.020;2022-12-18T12:25:33;1.00;99.90
8220;DHT22;4151;51.110;7.020;2022-12-18T12:28:25;1.00;99.90
8220;DHT22;4151;51.110;7.020;2022-12-18T12:39:11;1.00;99.90
8220;DHT22;4151;51.110;7.020;2022-12-18T12:41:39;1.00;99.90
8220;DHT22;4151;51.110;7.020;2022-12-18T12:44:40;1.00;99.90
8220;DHT22;4151;51.110;7.020;2022-12-18T12:47:22;1.00;99.90
8220;DHT22;4151;51.110;7.020;2022-12-18T12:49:51;0.90;99.90
8220;DHT22;4151;51.110;7.020;2022-12-18T12:52:31;0.90;99.90
8220;DHT22;4151;51.110;7.020;2022-12-18T12:54:58;0.80;99.90
8220;DHT22;4151;51.110;7.020;2022-12-18T12:57:33;0.70;99.90
8220;DHT22;4151;51.110;7.020;2022-12-18T13:00:05;0.70;99.90
8220;DHT22;4151;51.110;7.020;2022-12-18T13:05:45;0.70;99.90
8220;DHT22;4151;51.110;7.020;2022-12-18T13:08:32;0.70;99.90
8220;DHT22;4151;51.110;7.020;2022-12-18T13:10:59;0.70;99.90
8220;DHT22;4151;51.110;7.020;2022-12-18T13:13:52;0.70;99.90
8220;DHT22;4151;51.110;7.020;2022-12-18T13:16:21;0.70;99.90
8220;DHT22;4151;51.110;7.020;2022-12-18T13:18:51;0.70;99.90
8220;DHT22;4151;51.110;7.020;2022-12-18T13:21:24;0.70;99.90
8220;DHT22;4151;51.110;7.020;2022-12-18T13:23:52;0.70;99.90
8220;DHT22;4151;51.110;7.020;2022-12-18T13:36:42;0.50;99.90
8220;DHT22;4151;51.110;7.020;2022-12-18T13:44:39;0.30;99.90
8220;DHT22;4151;51.110;7.020;2022-12-18T13:49:54;0.30;99.90
8220;DHT22;4151;51.110;7.020;2022-12-18T13:52:25;0.20;99.90
8220;DHT22;4151;51.110;7.020;2022-12-18T13:54:54;0.20;99.90
8220;DHT22;4151;51.110;7.020;2022-12-18T13:57:30;0.20;99.90
8220;DHT22;4151;51.110;7.020;2022-12-18T13:59:58;0.20;99.90
8220;DHT22;4151;51.110;7.020;2022-12-18T14:02:37;0.10;99.90
8220;DHT22;4151;51.110;7.020;2022-12-18T14:05:03;0.20;99.90
8220;DHT22;4151;51.110;7.020;2022-12-18T14:07:29;0.20;99.90
8220;DHT22;4151;51.110;7.020;2022-12-18T14:09:58;0.20;99.90
8220;DHT22;4151;51.110;7.020;2022-12-18T14:12:31;0.20;99.90
8220;DHT22;4151;51.110;7.020;2022-12-18T14:17:52;0.20;99.90
8220;DHT22;4151;51.110;7.020;2022-12-18T14:20:18;0.10;99.90
8220;DHT22;4151;51.110;7.020;2022-12-18T14:22:45;0.20;99.90
8220;DHT22;4151;51.110;7.020;2022-12-18T14:28:02;0.10;99.90
8220;DHT22;4151;51.110;7.020;2022-12-18T14:30:45;0.00;99.90
8220;DHT22;4151;51.110;7.020;2022-12-18T14:33:19;0.00;99.90
8220;DHT22;4151;51.110;7.020;2022-12-18T14:38:23;0.00;99.90
8220;DHT22;4151;51.110;7.020;2022-12-18T14:43:38;0.00;99.90
8220;DHT22;4151;51.110;7.020;2022-12-18T14:46:06;0.00;99.90
8220;DHT22;4151;51.110;7.020;2022-12-18T14:48:47;0.00;99.90
8220;DHT22;4151;51.110;7.020;2022-12-18T14:51:19;0.00;99.90
8220;DHT22;4151;51.110;7.020;2022-12-18T14:53:48;0.00;99.90
8220;DHT22;4151;51.110;7.020;2022-12-18T14:58:44;0.00;99.90
8220;DHT22;4151;51.110;7.020;2022-12-18T15:01:18;0.00;99.90
8220;DHT22;4151;51.110;7.020;2022-12-18T15:03:44;0.00;99.90
8220;DHT22;4151;51.110;7.020;2022-12-18T15:08:53;-0.10;99.90
8220;DHT22;4151;51.110;7.020;2022-12-18T15:14:32;-0.10;99.90
8220;DHT22;4151;51.110;7.020;2022-12-18T15:16:59;-0.10;99.90
8220;DHT22;4151;51.110;7.020;2022-12-18T15:19:34;-0.10;99.90
8220;DHT22;4151;51.110;7.020;2022-12-18T15:22:01;-0.20;99.90
8220;DHT22;4151;51.110;7.020;2022-12-18T15:24:31;-0.20;99.90
8220;DHT22;4151;51.110;7.020;2022-12-18T15:26:58;-0.20;99.90
8220;DHT22;4151;51.110;7.020;2022-12-18T15:29:23;-0.20;99.90
8220;DHT22;4151;51.110;7.020;2022-12-18T15:32:01;-0.20;99.90
8220;DHT22;4151;51.110;7.020;2022-12-18T15:34:28;-0.20;99.90
8220;DHT22;4151;51.110;7.020;2022-12-18T15:36:54;-0.30;99.90
8220;DHT22;4151;51.110;7.020;2022-12-18T15:39:20;-0.20;99.90
8220;DHT22;4151;51.110;7.020;2022-12-18T15:41:46;-0.20;99.90
8220;DHT22;4151;51.110;7.020;2022-12-18T15:44:30;-0.30;99.90
8220;DHT22;4151;51.110;7.020;2022-12-18T15:46:55;-0.30;99.90
8220;DHT22;4151;51.110;7.020;2022-12-18T15:49:21;-0.30;99.90
8220;DHT22;4151;51.110;7.020;2022-12-18T15:51:51;-0.30;99.90
8220;DHT22;4151;51.110;7.020;2022-12-18T15:54:17;-0.40;99.90
8220;DHT22;4151;51.110;7.020;2022-12-18T15:56:42;-0.40;99.90
8220;DHT22;4151;51.110;7.020;2022-12-18T15:59:27;-0.40;99.90
8220;DHT22;4151;51.110;7.020;2022-12-18T16:01:52;-0.40;99.90
8220;DHT22;4151;51.110;7.020;2022-12-18T16:04:19;-0.40;99.90
8220;DHT22;4151;51.110;7.020;2022-12-18T16:06:46;-0.40;99.90
8220;DHT22;4151;51.110;7.020;2022-12-18T16:09:11;-0.40;99.90
8220;DHT22;4151;51.110;7.020;2022-12-18T16:11:39;-0.40;99.90
8220;DHT22;4151;51.110;7.020;2022-12-18T16:14:22;-0.40;99.90
8220;DHT22;4151;51.110;7.020;2022-12-18T16:16:51;-0.50;99.90
8220;DHT22;4151;51.110;7.020;2022-12-18T16:19:17;-0.50;99.90
8220;DHT22;4151;51.110;7.020;2022-12-18T16:21:43;-0.50;99.90
8220;DHT22;4151;51.110;7.020;2022-12-18T16:24:19;-0.60;99.90
8220;DHT22;4151;51.110;7.020;2022-12-18T16:26:48;-0.60;99.90
8220;DHT22;4151;51.110;7.020;2022-12-18T16:29:14;-0.60;99.90
8220;DHT22;4151;51.110;7.020;2022-12-18T16:31:40;-0.60;99.90
8220;DHT22;4151;51.110;7.020;2022-12-18T16:34:22;-0.60;99.90
8220;DHT22;4151;51.110;7.020;2022-12-18T16:36:54;-0.70;99.90
8220;DHT22;4151;51.110;7.020;2022-12-18T16:39:21;-0.70;99.90
8220;DHT22;4151;51.110;7.020;2022-12-18T16:41:47;-0.70;99.90
8220;DHT22;4151;51.110;7.020;2022-12-18T16:44:13;-0.70;99.90
8220;DHT22;4151;51.110;7.020;2022-12-18T16:46:39;-0.70;99.90
8220;DHT22;4151;51.110;7.020;2022-12-18T16:49:08;-0.70;99.90
8220;DHT22;4151;51.110;7.020;2022-12-18T16:51:34;-0.70;99.90
8220;DHT22;4151;51.110;7.020;2022-12-18T16:54:00;-0.70;99.90
8220;DHT22;4151;51.110;7.020;2022-12-18T16:56:25;-0.80;99.90
8220;DHT22;4151;51.110;7.020;2022-12-18T16:58:56;-0.70;99.90
8220;DHT22;4151;51.110;7.020;2022-12-18T17:01:22;-0.80;99.90
8220;DHT22;4151;51.110;7.020;2022-12-18T17:03:56;-0.70;99.90
8220;DHT22;4151;51.110;7.020;2022-12-18T17:06:22;-0.70;99.90
8220;DHT22;4151;51.110;7.020;2022-12-18T17:08:54;-0.70;99.90
8220;DHT22;4151;51.110;7.020;2022-12-18T17:11:20;-0.80;99.90
8220;DHT22;4151;51.110;7.020;2022-12-18T17:13:45;-0.70;99.90
8220;DHT22;4151;51.110;7.020;2022-12-18T17:16:11;-0.70;99.90
8220;DHT22;4151;51.110;7.020;2022-12-18T17:18:36;-0.70;99.90
8220;DHT22;4151;51.110;7.020;2022-12-18T17:21:04;-0.70;99.90
8220;DHT22;4151;51.110;7.020;2022-12-18T17:23:31;-0.80;99.90
8220;DHT22;4151;51.110;7.020;2022-12-18T17:25:57;-0.80;99.90
8220;DHT22;4151;51.110;7.020;2022-12-18T17:28:27;-0.80;99.90
8220;DHT22;4151;51.110;7.020;2022-12-18T17:30:54;-0.80;99.90
8220;DHT22;4151;51.110;7.020;2022-12-18T17:33:20;-0.80;99.90
8220;DHT22;4151;51.110;7.020;2022-12-18T17:35:45;-0.90;99.90
8220;DHT22;4151;51.110;7.020;2022-12-18T17:38:11;-0.90;99.90
8220;DHT22;4151;51.110;7.020;2022-12-18T17:40:37;-0.90;99.90
8220;DHT22;4151;51.110;7.020;2022-12-18T17:43:05;-0.90;99.90
8220;DHT22;4151;51.110;7.020;2022-12-18T17:45:33;-0.90;99.90
8220;DHT22;4151;51.110;7.020;2022-12-18T17:47:59;-0.90;99.90
8220;DHT22;4151;51.110;7.020;2022-12-18T17:50:24;-0.90;99.90
8220;DHT22;4151;51.110;7.020;2022-12-18T17:52:54;-0.90;99.90
8220;DHT22;4151;51.110;7.020;2022-12-18T17:55:20;-0.90;99.90
8220;DHT22;4151;51.110;7.020;2022-12-18T17:57:45;-0.90;99.90
8220;DHT22;4151;51.110;7.020;2022-12-18T18:00:12;-0.90;99.90
8220;DHT22;4151;51.110;7.020;2022-12-18T18:02:38;-0.90;99.90
8220;DHT22;4151;51.110;7.020;2022-12-18T18:05:03;-0.90;99.90
8220;DHT22;4151;51.110;7.020;2022-12-18T18:07:29;-0.90;99.90
8220;DHT22;4151;51.110;7.020;2022-12-18T18:09:54;-0.90;99.90
8220;DHT22;4151;51.110;7.020;2022-12-18T18:12:20;-0.90;99.90
8220;DHT22;4151;51.110;7.020;2022-12-18T18:15:06;-0.90;99.90
8220;DHT22;4151;51.110;7.020;2022-12-18T18:17:32;-0.90;99.90
8220;DHT22;4151;51.110;7.020;2022-12-18T18:19:57;-0.90;99.90
8220;DHT22;4151;51.110;7.020;2022-12-18T18:22:23;-0.90;99.90
8220;DHT22;4151;51.110;7.020;2022-12-18T18:24:49;-0.90;99.90
8220;DHT22;4151;51.110;7.020;2022-12-18T18:27:14;-0.90;99.90
8220;DHT22;4151;51.110;7.020;2022-12-18T18:29:40;-0.90;99.90